sensor_id;sensor_type;location;lat;lon;timestamp;P1;durP1;ratioP1;P2;durP2;ratioP2
23101;SDS011;11720;51.214;22.574;2023-01-10T00:01:43;15.20;;;6.97;;
23101;SDS011;11720;51.214;22.574;2023-01-10T00:04:09;19.30;;;7.37;;
23101;SDS011;11720;51.214;22.574;2023-01-10T00:06:35;19.70;;;8.07;;
23101;SDS011;11720;51.214;22.574;2023-01-10T00:09:01;13.03;;;6.07;;
23101;SDS011;11720;51.214;22.574;2023-01-10T00:11:28;23.30;;;7.90;;
23101;SDS011;11720;51.214;22.574;2023-01-10T00:14:12;16.00;;;6.47;;
23101;SDS011;11720;51.214;22.574;2023-01-10T00:16:41;23.63;;;7.93;;
23101;SDS011;11720;51.214;22.574;2023-01-10T00:19:07;14.57;;;7.20;;
23101;SDS011;11720;51.214;22.574;2023-01-10T00:21:42;19.13;;;6.50;;
23101;SDS011;11720;51.214;22.574;2023-01-10T00:24:11;14.60;;;6.90;;
23101;SDS011;11720;51.214;22.574;2023-01-10T00:26:47;31.17;;;9.13;;
23101;SDS011;11720;51.214;22.574;2023-01-10T00:29:23;15.10;;;6.40;;
23101;SDS011;11720;51.214;22.574;2023-01-10T00:31:53;19.03;;;7.27;;
23101;SDS011;11720;51.214;22.574;2023-01-10T00:34:19;20.97;;;8.23;;
23101;SDS011;11720;51.214;22.574;2023-01-10T00:36:50;23.60;;;8.80;;
23101;SDS011;11720;51.214;22.574;2023-01-10T00:39:24;35.40;;;12.23;;
23101;SDS011;11720;51.214;22.574;2023-01-10T00:41:52;35.00;;;11.63;;
23101;SDS011;11720;51.214;22.574;2023-01-10T00:44:39;35.33;;;13.20;;
23101;SDS011;11720;51.214;22.574;2023-01-10T00:47:07;31.47;;;13.23;;
23101;SDS011;11720;51.214;22.574;2023-01-10T00:49:33;26.90;;;11.60;;
23101;SDS011;11720;51.214;22.574;2023-01-10T00:51:59;32.57;;;9.23;;
23101;SDS011;11720;51.214;22.574;2023-01-10T00:54:25;27.07;;;8.30;;
23101;SDS011;11720;51.214;22.574;2023-01-10T00:56:51;22.30;;;8.63;;
23101;SDS011;11720;51.214;22.574;2023-01-10T00:59:17;22.87;;;11.17;;
23101;SDS011;11720;51.214;22.574;2023-01-10T01:01:46;20.37;;;9.60;;
23101;SDS011;11720;51.214;22.574;2023-01-10T01:04:12;19.03;;;8.33;;
23101;SDS011;11720;51.214;22.574;2023-01-10T01:06:38;13.40;;;7.50;;
23101;SDS011;11720;51.214;22.574;2023-01-10T01:09:07;14.43;;;6.83;;
23101;SDS011;11720;51.214;22.574;2023-01-10T01:11:35;12.10;;;6.50;;
23101;SDS011;11720;51.214;22.574;2023-01-10T01:14:04;14.43;;;7.50;;
23101;SDS011;11720;51.214;22.574;2023-01-10T01:16:32;16.17;;;6.97;;
23101;SDS011;11720;51.214;22.574;2023-01-10T01:18:59;15.70;;;5.87;;
23101;SDS011;11720;51.214;22.574;2023-01-10T01:21:25;18.67;;;6.57;;
23101;SDS011;11720;51.214;22.574;2023-01-10T01:23:57;12.23;;;5.97;;
23101;SDS011;11720;51.214;22.574;2023-01-10T01:26:25;15.40;;;4.90;;
23101;SDS011;11720;51.214;22.574;2023-01-10T01:29:06;14.77;;;6.47;;
23101;SDS011;11720;51.214;22.574;2023-01-10T01:31:37;12.47;;;6.77;;
23101;SDS011;11720;51.214;22.574;2023-01-10T01:34:03;12.77;;;8.73;;
23101;SDS011;11720;51.214;22.574;2023-01-10T01:36:31;17.07;;;7.70;;
23101;SDS011;11720;51.214;22.574;2023-01-10T01:38:59;16.10;;;6.77;;
23101;SDS011;11720;51.214;22.574;2023-01-10T01:41:27;14.23;;;6.60;;
23101;SDS011;11720;51.214;22.574;2023-01-10T01:44:16;11.00;;;6.47;;
23101;SDS011;11720;51.214;22.574;2023-01-10T01:47:00;11.97;;;5.27;;
23101;SDS011;11720;51.214;22.574;2023-01-10T01:49:26;16.67;;;6.40;;
23101;SDS011;11720;51.214;22.574;2023-01-10T01:51:56;10.70;;;4.93;;
23101;SDS011;11720;51.214;22.574;2023-01-10T01:54:27;10.63;;;6.00;;
23101;SDS011;11720;51.214;22.574;2023-01-10T01:56:54;13.33;;;7.17;;
23101;SDS011;11720;51.214;22.574;2023-01-10T01:59:30;14.17;;;6.90;;
23101;SDS011;11720;51.214;22.574;2023-01-10T02:02:06;9.20;;;5.53;;
23101;SDS011;11720;51.214;22.574;2023-01-10T02:04:44;10.37;;;6.20;;
23101;SDS011;11720;51.214;22.574;2023-01-10T02:07:12;19.03;;;7.33;;
23101;SDS011;11720;51.214;22.574;2023-01-10T02:09:47;12.00;;;7.37;;
23101;SDS011;11720;51.214;22.574;2023-01-10T02:12:35;20.93;;;8.07;;
23101;SDS011;11720;51.214;22.574;2023-01-10T02:15:06;13.87;;;7.67;;
23101;SDS011;11720;51.214;22.574;2023-01-10T02:17:35;10.57;;;5.93;;
23101;SDS011;11720;51.214;22.574;2023-01-10T02:20:09;18.07;;;6.73;;
23101;SDS011;11720;51.214;22.574;2023-01-10T02:22:43;16.93;;;8.00;;
23101;SDS011;11720;51.214;22.574;2023-01-10T02:27:55;13.50;;;7.07;;
23101;SDS011;11720;51.214;22.574;2023-01-10T02:33:01;15.97;;;6.60;;
23101;SDS011;11720;51.214;22.574;2023-01-10T02:35:46;11.03;;;6.33;;
23101;SDS011;11720;51.214;22.574;2023-01-10T02:38:34;23.13;;;7.27;;
23101;SDS011;11720;51.214;22.574;2023-01-10T02:44:10;14.67;;;7.70;;
23101;SDS011;11720;51.214;22.574;2023-01-10T02:46:45;18.97;;;8.60;;
23101;SDS011;11720;51.214;22.574;2023-01-10T02:49:13;13.43;;;7.17;;
23101;SDS011;11720;51.214;22.574;2023-01-10T02:51:39;12.87;;;6.40;;
23101;SDS011;11720;51.214;22.574;2023-01-10T02:54:07;11.90;;;6.50;;
23101;SDS011;11720;51.214;22.574;2023-01-10T03:05:22;18.10;;;7.87;;
23101;SDS011;11720;51.214;22.574;2023-01-10T03:08:23;13.87;;;8.80;;
23101;SDS011;11720;51.214;22.574;2023-01-10T03:10:53;15.30;;;8.80;;
23101;SDS011;11720;51.214;22.574;2023-01-10T03:13:40;19.70;;;8.40;;
23101;SDS011;11720;51.214;22.574;2023-01-10T03:16:14;25.90;;;8.50;;
23101;SDS011;11720;51.214;22.574;2023-01-10T03:18:53;22.90;;;7.70;;
23101;SDS011;11720;51.214;22.574;2023-01-10T03:21:26;15.53;;;7.30;;
23101;SDS011;11720;51.214;22.574;2023-01-10T03:23:55;14.70;;;7.57;;
23101;SDS011;11720;51.214;22.574;2023-01-10T03:29:34;26.47;;;9.13;;
23101;SDS011;11720;51.214;22.574;2023-01-10T03:32:06;14.30;;;6.63;;
23101;SDS011;11720;51.214;22.574;2023-01-10T03:34:40;20.07;;;9.13;;
23101;SDS011;11720;51.214;22.574;2023-01-10T03:37:14;14.63;;;9.03;;
23101;SDS011;11720;51.214;22.574;2023-01-10T03:39:56;15.33;;;7.57;;
23101;SDS011;11720;51.214;22.574;2023-01-10T03:42:42;15.07;;;8.50;;
23101;SDS011;11720;51.214;22.574;2023-01-10T03:45:50;15.40;;;7.43;;
23101;SDS011;11720;51.214;22.574;2023-01-10T03:48:29;25.90;;;9.13;;
23101;SDS011;11720;51.214;22.574;2023-01-10T03:51:00;15.67;;;8.13;;
23101;SDS011;11720;51.214;22.574;2023-01-10T03:53:32;21.33;;;8.73;;
23101;SDS011;11720;51.214;22.574;2023-01-10T03:56:01;14.17;;;7.67;;
23101;SDS011;11720;51.214;22.574;2023-01-10T03:58:27;10.93;;;7.00;;
23101;SDS011;11720;51.214;22.574;2023-01-10T04:00:54;19.87;;;7.90;;
23101;SDS011;11720;51.214;22.574;2023-01-10T04:03:22;20.27;;;7.60;;
23101;SDS011;11720;51.214;22.574;2023-01-10T04:05:48;18.50;;;8.00;;
23101;SDS011;11720;51.214;22.574;2023-01-10T04:08:16;21.70;;;7.73;;
23101;SDS011;11720;51.214;22.574;2023-01-10T04:10:42;21.50;;;8.13;;
23101;SDS011;11720;51.214;22.574;2023-01-10T04:13:15;14.73;;;7.20;;
23101;SDS011;11720;51.214;22.574;2023-01-10T04:15:42;17.87;;;7.07;;
23101;SDS011;11720;51.214;22.574;2023-01-10T04:18:11;12.50;;;5.43;;
23101;SDS011;11720;51.214;22.574;2023-01-10T04:20:42;10.63;;;7.10;;
23101;SDS011;11720;51.214;22.574;2023-01-10T04:23:19;14.07;;;6.27;;
23101;SDS011;11720;51.214;22.574;2023-01-10T04:25:45;12.67;;;5.90;;
23101;SDS011;11720;51.214;22.574;2023-01-10T04:28:12;10.20;;;4.47;;
23101;SDS011;11720;51.214;22.574;2023-01-10T04:30:40;13.93;;;7.53;;
23101;SDS011;11720;51.214;22.574;2023-01-10T04:33:18;13.63;;;6.87;;
23101;SDS011;11720;51.214;22.574;2023-01-10T04:35:50;6.13;;;4.40;;
23101;SDS011;11720;51.214;22.574;2023-01-10T04:38:16;14.73;;;6.67;;
23101;SDS011;11720;51.214;22.574;2023-01-10T04:40:43;14.13;;;7.27;;
23101;SDS011;11720;51.214;22.574;2023-01-10T04:43:09;18.73;;;7.47;;
23101;SDS011;11720;51.214;22.574;2023-01-10T04:45:40;11.87;;;6.10;;
23101;SDS011;11720;51.214;22.574;2023-01-10T04:48:07;13.63;;;6.07;;
23101;SDS011;11720;51.214;22.574;2023-01-10T04:50:33;11.47;;;6.47;;
23101;SDS011;11720;51.214;22.574;2023-01-10T04:52:59;8.57;;;5.53;;
23101;SDS011;11720;51.214;22.574;2023-01-10T04:55:27;12.60;;;6.30;;
23101;SDS011;11720;51.214;22.574;2023-01-10T04:57:54;14.53;;;6.33;;
23101;SDS011;11720;51.214;22.574;2023-01-10T05:00:20;13.63;;;5.27;;
23101;SDS011;11720;51.214;22.574;2023-01-10T05:02:46;16.70;;;5.83;;
23101;SDS011;11720;51.214;22.574;2023-01-10T05:05:12;15.40;;;5.87;;
23101;SDS011;11720;51.214;22.574;2023-01-10T05:07:39;17.77;;;8.27;;
23101;SDS011;11720;51.214;22.574;2023-01-10T05:10:08;10.93;;;6.40;;
23101;SDS011;11720;51.214;22.574;2023-01-10T05:12:37;16.63;;;6.70;;
23101;SDS011;11720;51.214;22.574;2023-01-10T05:15:03;15.23;;;7.80;;
23101;SDS011;11720;51.214;22.574;2023-01-10T05:17:29;12.43;;;6.20;;
23101;SDS011;11720;51.214;22.574;2023-01-10T05:20:00;13.53;;;7.03;;
23101;SDS011;11720;51.214;22.574;2023-01-10T05:22:39;8.80;;;5.20;;
23101;SDS011;11720;51.214;22.574;2023-01-10T05:25:13;16.27;;;8.90;;
23101;SDS011;11720;51.214;22.574;2023-01-10T05:27:41;21.43;;;9.93;;
23101;SDS011;11720;51.214;22.574;2023-01-10T05:30:17;18.87;;;8.50;;
23101;SDS011;11720;51.214;22.574;2023-01-10T05:32:42;12.57;;;6.23;;
23101;SDS011;11720;51.214;22.574;2023-01-10T05:35:11;15.50;;;6.17;;
23101;SDS011;11720;51.214;22.574;2023-01-10T05:37:46;13.00;;;7.07;;
23101;SDS011;11720;51.214;22.574;2023-01-10T05:40:14;22.33;;;6.70;;
23101;SDS011;11720;51.214;22.574;2023-01-10T05:42:40;16.87;;;6.60;;
23101;SDS011;11720;51.214;22.574;2023-01-10T05:45:08;11.37;;;6.57;;
23101;SDS011;11720;51.214;22.574;2023-01-10T05:47:45;9.70;;;6.07;;
23101;SDS011;11720;51.214;22.574;2023-01-10T05:50:11;9.43;;;6.47;;
23101;SDS011;11720;51.214;22.574;2023-01-10T05:52:37;13.87;;;6.83;;
23101;SDS011;11720;51.214;22.574;2023-01-10T05:55:06;11.10;;;7.23;;
23101;SDS011;11720;51.214;22.574;2023-01-10T05:57:34;17.10;;;9.73;;
23101;SDS011;11720;51.214;22.574;2023-01-10T06:00:01;9.07;;;6.30;;
23101;SDS011;11720;51.214;22.574;2023-01-10T06:02:35;18.90;;;8.47;;
23101;SDS011;11720;51.214;22.574;2023-01-10T06:05:01;24.77;;;9.67;;
23101;SDS011;11720;51.214;22.574;2023-01-10T06:07:28;15.83;;;8.20;;
23101;SDS011;11720;51.214;22.574;2023-01-10T06:09:54;13.23;;;6.73;;
23101;SDS011;11720;51.214;22.574;2023-01-10T06:12:20;11.87;;;6.37;;
23101;SDS011;11720;51.214;22.574;2023-01-10T06:14:46;19.73;;;8.57;;
23101;SDS011;11720;51.214;22.574;2023-01-10T06:17:12;22.70;;;10.07;;
23101;SDS011;11720;51.214;22.574;2023-01-10T06:19:38;22.07;;;10.30;;
23101;SDS011;11720;51.214;22.574;2023-01-10T06:22:07;16.17;;;7.90;;
23101;SDS011;11720;51.214;22.574;2023-01-10T06:24:33;26.37;;;10.63;;
23101;SDS011;11720;51.214;22.574;2023-01-10T06:27:01;31.70;;;12.23;;
23101;SDS011;11720;51.214;22.574;2023-01-10T06:29:35;48.70;;;16.90;;
23101;SDS011;11720;51.214;22.574;2023-01-10T06:32:01;50.97;;;16.57;;
23101;SDS011;11720;51.214;22.574;2023-01-10T06:34:27;63.93;;;21.03;;
23101;SDS011;11720;51.214;22.574;2023-01-10T06:36:53;39.23;;;12.07;;
23101;SDS011;11720;51.214;22.574;2023-01-10T06:39:19;24.60;;;11.90;;
23101;SDS011;11720;51.214;22.574;2023-01-10T06:41:45;12.53;;;8.00;;
23101;SDS011;11720;51.214;22.574;2023-01-10T06:44:11;19.93;;;8.67;;
23101;SDS011;11720;51.214;22.574;2023-01-10T06:46:37;25.93;;;8.97;;
23101;SDS011;11720;51.214;22.574;2023-01-10T06:49:03;19.40;;;7.33;;
23101;SDS011;11720;51.214;22.574;2023-01-10T06:51:29;22.83;;;10.97;;
23101;SDS011;11720;51.214;22.574;2023-01-10T06:53:55;73.87;;;23.17;;
23101;SDS011;11720;51.214;22.574;2023-01-10T06:56:24;90.03;;;22.93;;
23101;SDS011;11720;51.214;22.574;2023-01-10T06:58:52;65.50;;;18.73;;
23101;SDS011;11720;51.214;22.574;2023-01-10T07:01:19;75.47;;;24.10;;
23101;SDS011;11720;51.214;22.574;2023-01-10T07:03:48;67.77;;;18.20;;
23101;SDS011;11720;51.214;22.574;2023-01-10T07:06:16;82.37;;;20.33;;
23101;SDS011;11720;51.214;22.574;2023-01-10T07:08:45;44.63;;;13.53;;
23101;SDS011;11720;51.214;22.574;2023-01-10T07:11:19;25.93;;;11.27;;
23101;SDS011;11720;51.214;22.574;2023-01-10T07:13:56;42.43;;;12.07;;
23101;SDS011;11720;51.214;22.574;2023-01-10T07:16:22;34.57;;;9.33;;
23101;SDS011;11720;51.214;22.574;2023-01-10T07:18:55;33.03;;;10.40;;
23101;SDS011;11720;51.214;22.574;2023-01-10T07:21:26;43.10;;;11.37;;
23101;SDS011;11720;51.214;22.574;2023-01-10T07:23:52;27.37;;;9.87;;
23101;SDS011;11720;51.214;22.574;2023-01-10T07:26:18;24.87;;;11.37;;
23101;SDS011;11720;51.214;22.574;2023-01-10T07:28:48;40.53;;;14.97;;
23101;SDS011;11720;51.214;22.574;2023-01-10T07:31:19;19.40;;;9.90;;
23101;SDS011;11720;51.214;22.574;2023-01-10T07:33:50;46.93;;;16.90;;
23101;SDS011;11720;51.214;22.574;2023-01-10T07:36:21;49.33;;;15.00;;
23101;SDS011;11720;51.214;22.574;2023-01-10T07:38:47;34.43;;;14.60;;
23101;SDS011;11720;51.214;22.574;2023-01-10T07:41:16;39.10;;;16.17;;
23101;SDS011;11720;51.214;22.574;2023-01-10T07:43:45;53.77;;;15.67;;
23101;SDS011;11720;51.214;22.574;2023-01-10T07:46:12;57.13;;;19.20;;
23101;SDS011;11720;51.214;22.574;2023-01-10T07:48:39;82.93;;;18.97;;
23101;SDS011;11720;51.214;22.574;2023-01-10T07:51:10;36.67;;;13.13;;
23101;SDS011;11720;51.214;22.574;2023-01-10T07:53:39;16.10;;;8.77;;
23101;SDS011;11720;51.214;22.574;2023-01-10T07:56:07;27.57;;;9.90;;
23101;SDS011;11720;51.214;22.574;2023-01-10T07:58:33;18.87;;;10.20;;
23101;SDS011;11720;51.214;22.574;2023-01-10T08:01:02;22.77;;;9.93;;
23101;SDS011;11720;51.214;22.574;2023-01-10T08:03:31;18.93;;;10.23;;
23101;SDS011;11720;51.214;22.574;2023-01-10T08:06:00;22.37;;;9.60;;
23101;SDS011;11720;51.214;22.574;2023-01-10T08:08:29;16.03;;;9.57;;
23101;SDS011;11720;51.214;22.574;2023-01-10T08:10:58;23.53;;;9.70;;
23101;SDS011;11720;51.214;22.574;2023-01-10T08:13:26;19.50;;;10.07;;
23101;SDS011;11720;51.214;22.574;2023-01-10T08:15:55;16.17;;;9.03;;
23101;SDS011;11720;51.214;22.574;2023-01-10T08:18:22;20.67;;;8.97;;
23101;SDS011;11720;51.214;22.574;2023-01-10T08:20:51;24.70;;;11.20;;
23101;SDS011;11720;51.214;22.574;2023-01-10T08:23:28;23.90;;;10.67;;
23101;SDS011;11720;51.214;22.574;2023-01-10T08:25:56;21.10;;;10.07;;
23101;SDS011;11720;51.214;22.574;2023-01-10T08:28:25;16.50;;;10.10;;
23101;SDS011;11720;51.214;22.574;2023-01-10T08:30:51;20.90;;;11.00;;
23101;SDS011;11720;51.214;22.574;2023-01-10T08:33:21;21.10;;;11.33;;
23101;SDS011;11720;51.214;22.574;2023-01-10T08:35:48;21.27;;;11.33;;
23101;SDS011;11720;51.214;22.574;2023-01-10T08:38:14;32.50;;;13.23;;
23101;SDS011;11720;51.214;22.574;2023-01-10T08:40:41;23.03;;;11.37;;
23101;SDS011;11720;51.214;22.574;2023-01-10T08:43:10;25.50;;;11.97;;
23101;SDS011;11720;51.214;22.574;2023-01-10T08:45:36;17.47;;;9.30;;
23101;SDS011;11720;51.214;22.574;2023-01-10T08:48:03;12.97;;;9.33;;
23101;SDS011;11720;51.214;22.574;2023-01-10T08:50:33;25.50;;;12.00;;
23101;SDS011;11720;51.214;22.574;2023-01-10T08:52:59;17.03;;;8.67;;
23101;SDS011;11720;51.214;22.574;2023-01-10T08:55:28;19.40;;;8.50;;
23101;SDS011;11720;51.214;22.574;2023-01-10T08:57:57;12.30;;;7.47;;
23101;SDS011;11720;51.214;22.574;2023-01-10T09:00:24;13.47;;;8.83;;
23101;SDS011;11720;51.214;22.574;2023-01-10T09:02:50;21.53;;;9.70;;
23101;SDS011;11720;51.214;22.574;2023-01-10T09:05:16;19.67;;;9.93;;
23101;SDS011;11720;51.214;22.574;2023-01-10T09:07:42;13.47;;;7.50;;
23101;SDS011;11720;51.214;22.574;2023-01-10T09:10:10;20.47;;;9.83;;
23101;SDS011;11720;51.214;22.574;2023-01-10T09:12:36;27.27;;;12.57;;
23101;SDS011;11720;51.214;22.574;2023-01-10T09:15:21;18.87;;;8.97;;
23101;SDS011;11720;51.214;22.574;2023-01-10T09:17:47;18.47;;;9.03;;
23101;SDS011;11720;51.214;22.574;2023-01-10T09:20:16;20.50;;;8.70;;
23101;SDS011;11720;51.214;22.574;2023-01-10T09:22:42;22.47;;;9.63;;
23101;SDS011;11720;51.214;22.574;2023-01-10T09:25:08;24.97;;;10.30;;
23101;SDS011;11720;51.214;22.574;2023-01-10T09:27:35;16.17;;;8.80;;
23101;SDS011;11720;51.214;22.574;2023-01-10T09:30:01;17.90;;;8.60;;
23101;SDS011;11720;51.214;22.574;2023-01-10T09:32:28;19.07;;;10.30;;
23101;SDS011;11720;51.214;22.574;2023-01-10T09:34:54;26.63;;;13.87;;
23101;SDS011;11720;51.214;22.574;2023-01-10T09:37:20;18.17;;;10.20;;
23101;SDS011;11720;51.214;22.574;2023-01-10T09:39:46;23.27;;;10.60;;
23101;SDS011;11720;51.214;22.574;2023-01-10T09:45:09;28.97;;;13.10;;
23101;SDS011;11720;51.214;22.574;2023-01-10T09:53:09;26.30;;;11.77;;
23101;SDS011;11720;51.214;22.574;2023-01-10T09:55:38;21.13;;;10.27;;
23101;SDS011;11720;51.214;22.574;2023-01-10T09:58:09;23.40;;;12.63;;
23101;SDS011;11720;51.214;22.574;2023-01-10T10:00:51;32.80;;;13.93;;
23101;SDS011;11720;51.214;22.574;2023-01-10T10:05:58;20.47;;;10.33;;
23101;SDS011;11720;51.214;22.574;2023-01-10T10:08:24;20.00;;;11.40;;
23101;SDS011;11720;51.214;22.574;2023-01-10T10:10:58;14.03;;;9.57;;
23101;SDS011;11720;51.214;22.574;2023-01-10T10:13:49;22.53;;;9.87;;
23101;SDS011;11720;51.214;22.574;2023-01-10T10:26:58;20.40;;;10.13;;
23101;SDS011;11720;51.214;22.574;2023-01-10T10:29:53;20.53;;;9.67;;
23101;SDS011;11720;51.214;22.574;2023-01-10T10:34:59;17.50;;;7.17;;
23101;SDS011;11720;51.214;22.574;2023-01-10T10:37:50;11.40;;;7.53;;
23101;SDS011;11720;51.214;22.574;2023-01-10T10:40:22;13.60;;;7.63;;
23101;SDS011;11720;51.214;22.574;2023-01-10T10:42:54;12.97;;;7.03;;
23101;SDS011;11720;51.214;22.574;2023-01-10T10:50:47;12.53;;;7.07;;
23101;SDS011;11720;51.214;22.574;2023-01-10T10:53:23;14.80;;;7.27;;
23101;SDS011;11720;51.214;22.574;2023-01-10T10:55:49;15.47;;;8.30;;
23101;SDS011;11720;51.214;22.574;2023-01-10T10:58:15;19.30;;;8.60;;
23101;SDS011;11720;51.214;22.574;2023-01-10T11:00:45;28.30;;;8.93;;
23101;SDS011;11720;51.214;22.574;2023-01-10T11:03:22;12.63;;;7.53;;
23101;SDS011;11720;51.214;22.574;2023-01-10T11:05:49;16.03;;;9.00;;
23101;SDS011;11720;51.214;22.574;2023-01-10T11:08:16;15.23;;;7.87;;
23101;SDS011;11720;51.214;22.574;2023-01-10T11:10:48;14.90;;;8.87;;
23101;SDS011;11720;51.214;22.574;2023-01-10T11:13:26;12.47;;;6.23;;
23101;SDS011;11720;51.214;22.574;2023-01-10T11:15:54;16.13;;;7.30;;
23101;SDS011;11720;51.214;22.574;2023-01-10T11:18:21;16.60;;;8.83;;
23101;SDS011;11720;51.214;22.574;2023-01-10T11:20:52;17.13;;;7.90;;
23101;SDS011;11720;51.214;22.574;2023-01-10T11:28:46;19.40;;;8.97;;
23101;SDS011;11720;51.214;22.574;2023-01-10T11:31:13;16.63;;;8.33;;
23101;SDS011;11720;51.214;22.574;2023-01-10T11:33:39;18.80;;;7.27;;
23101;SDS011;11720;51.214;22.574;2023-01-10T11:36:09;11.97;;;6.60;;
23101;SDS011;11720;51.214;22.574;2023-01-10T11:38:39;13.93;;;6.57;;
23101;SDS011;11720;51.214;22.574;2023-01-10T11:41:22;13.33;;;6.87;;
23101;SDS011;11720;51.214;22.574;2023-01-10T11:43:51;12.73;;;6.13;;
23101;SDS011;11720;51.214;22.574;2023-01-10T11:46:18;10.83;;;6.83;;
23101;SDS011;11720;51.214;22.574;2023-01-10T11:51:28;17.20;;;6.60;;
23101;SDS011;11720;51.214;22.574;2023-01-10T11:54:02;14.53;;;6.23;;
23101;SDS011;11720;51.214;22.574;2023-01-10T11:57:05;15.97;;;7.77;;
23101;SDS011;11720;51.214;22.574;2023-01-10T11:59:34;9.67;;;6.70;;
23101;SDS011;11720;51.214;22.574;2023-01-10T12:02:03;15.83;;;8.03;;
23101;SDS011;11720;51.214;22.574;2023-01-10T12:04:51;12.87;;;8.30;;
23101;SDS011;11720;51.214;22.574;2023-01-10T12:07:17;19.50;;;8.67;;
23101;SDS011;11720;51.214;22.574;2023-01-10T12:09:50;24.97;;;12.80;;
23101;SDS011;11720;51.214;22.574;2023-01-10T12:12:30;15.17;;;8.63;;
23101;SDS011;11720;51.214;22.574;2023-01-10T12:14:59;16.13;;;9.00;;
23101;SDS011;11720;51.214;22.574;2023-01-10T12:17:45;13.73;;;9.67;;
23101;SDS011;11720;51.214;22.574;2023-01-10T12:20:12;15.10;;;7.37;;
23101;SDS011;11720;51.214;22.574;2023-01-10T12:22:40;17.20;;;9.23;;
23101;SDS011;11720;51.214;22.574;2023-01-10T12:25:26;25.50;;;9.50;;
23101;SDS011;11720;51.214;22.574;2023-01-10T12:27:59;17.03;;;10.37;;
23101;SDS011;11720;51.214;22.574;2023-01-10T12:30:30;27.00;;;10.40;;
23101;SDS011;11720;51.214;22.574;2023-01-10T12:32:57;20.83;;;8.90;;
23101;SDS011;11720;51.214;22.574;2023-01-10T12:35:37;19.07;;;7.37;;
23101;SDS011;11720;51.214;22.574;2023-01-10T12:44:41;10.60;;;6.33;;
23101;SDS011;11720;51.214;22.574;2023-01-10T12:47:16;13.37;;;6.30;;
23101;SDS011;11720;51.214;22.574;2023-01-10T12:50:09;12.23;;;6.73;;
23101;SDS011;11720;51.214;22.574;2023-01-10T12:52:59;17.80;;;7.60;;
23101;SDS011;11720;51.214;22.574;2023-01-10T12:55:43;10.67;;;6.33;;
23101;SDS011;11720;51.214;22.574;2023-01-10T12:58:20;18.20;;;7.07;;
23101;SDS011;11720;51.214;22.574;2023-01-10T13:00:52;11.27;;;6.63;;
23101;SDS011;11720;51.214;22.574;2023-01-10T13:03:24;16.93;;;8.13;;
23101;SDS011;11720;51.214;22.574;2023-01-10T13:05:53;21.13;;;10.33;;
23101;SDS011;11720;51.214;22.574;2023-01-10T13:08:22;24.17;;;11.73;;
23101;SDS011;11720;51.214;22.574;2023-01-10T13:10:52;21.50;;;11.17;;
23101;SDS011;11720;51.214;22.574;2023-01-10T13:13:29;22.43;;;9.30;;
23101;SDS011;11720;51.214;22.574;2023-01-10T13:18:59;16.87;;;10.10;;
23101;SDS011;11720;51.214;22.574;2023-01-10T13:21:29;18.90;;;10.57;;
23101;SDS011;11720;51.214;22.574;2023-01-10T13:23:57;18.37;;;11.80;;
23101;SDS011;11720;51.214;22.574;2023-01-10T13:29:37;26.77;;;12.77;;
23101;SDS011;11720;51.214;22.574;2023-01-10T13:32:19;26.80;;;12.90;;
23101;SDS011;11720;51.214;22.574;2023-01-10T13:34:47;16.53;;;8.17;;
23101;SDS011;11720;51.214;22.574;2023-01-10T13:37:36;18.97;;;9.43;;
23101;SDS011;11720;51.214;22.574;2023-01-10T13:40:04;16.67;;;9.73;;
23101;SDS011;11720;51.214;22.574;2023-01-10T13:52:46;18.50;;;8.97;;
23101;SDS011;11720;51.214;22.574;2023-01-10T14:00:38;16.27;;;6.23;;
23101;SDS011;11720;51.214;22.574;2023-01-10T14:11:25;29.43;;;14.90;;
23101;SDS011;11720;51.214;22.574;2023-01-10T14:13:58;55.90;;;17.00;;
23101;SDS011;11720;51.214;22.574;2023-01-10T14:18:52;34.03;;;15.10;;
23101;SDS011;11720;51.214;22.574;2023-01-10T14:21:20;39.07;;;15.50;;
23101;SDS011;11720;51.214;22.574;2023-01-10T14:23:49;37.53;;;12.00;;
23101;SDS011;11720;51.214;22.574;2023-01-10T14:26:26;25.63;;;13.87;;
23101;SDS011;11720;51.214;22.574;2023-01-10T14:29:13;37.70;;;14.87;;
23101;SDS011;11720;51.214;22.574;2023-01-10T14:31:46;30.10;;;15.27;;
23101;SDS011;11720;51.214;22.574;2023-01-10T14:34:21;28.97;;;14.87;;
23101;SDS011;11720;51.214;22.574;2023-01-10T14:37:01;32.57;;;13.33;;
23101;SDS011;11720;51.214;22.574;2023-01-10T14:39:32;22.40;;;10.20;;
23101;SDS011;11720;51.214;22.574;2023-01-10T14:42:06;26.87;;;12.57;;
23101;SDS011;11720;51.214;22.574;2023-01-10T14:44:40;22.97;;;12.30;;
23101;SDS011;11720;51.214;22.574;2023-01-10T14:47:24;24.87;;;11.47;;
23101;SDS011;11720;51.214;22.574;2023-01-10T14:52:52;25.03;;;13.00;;
23101;SDS011;11720;51.214;22.574;2023-01-10T14:55:20;32.47;;;14.30;;
23101;SDS011;11720;51.214;22.574;2023-01-10T15:00:31;28.60;;;12.33;;
23101;SDS011;11720;51.214;22.574;2023-01-10T15:03:00;31.80;;;11.67;;
23101;SDS011;11720;51.214;22.574;2023-01-10T15:05:29;27.67;;;11.47;;
23101;SDS011;11720;51.214;22.574;2023-01-10T15:08:20;28.50;;;11.80;;
23101;SDS011;11720;51.214;22.574;2023-01-10T15:10:46;20.23;;;9.60;;
23101;SDS011;11720;51.214;22.574;2023-01-10T15:13:16;18.30;;;9.63;;
23101;SDS011;11720;51.214;22.574;2023-01-10T15:15:45;25.07;;;12.20;;
23101;SDS011;11720;51.214;22.574;2023-01-10T15:21:09;15.33;;;10.93;;
23101;SDS011;11720;51.214;22.574;2023-01-10T15:23:41;25.17;;;10.83;;
23101;SDS011;11720;51.214;22.574;2023-01-10T15:28:42;17.03;;;9.27;;
23101;SDS011;11720;51.214;22.574;2023-01-10T15:31:17;21.93;;;10.40;;
23101;SDS011;11720;51.214;22.574;2023-01-10T15:34:10;37.57;;;13.53;;
23101;SDS011;11720;51.214;22.574;2023-01-10T15:36:56;33.03;;;13.67;;
23101;SDS011;11720;51.214;22.574;2023-01-10T15:39:31;52.47;;;18.37;;
23101;SDS011;11720;51.214;22.574;2023-01-10T15:42:01;42.40;;;19.43;;
23101;SDS011;11720;51.214;22.574;2023-01-10T15:44:34;46.83;;;21.30;;
23101;SDS011;11720;51.214;22.574;2023-01-10T15:47:05;34.73;;;16.93;;
23101;SDS011;11720;51.214;22.574;2023-01-10T15:49:51;38.10;;;14.63;;
23101;SDS011;11720;51.214;22.574;2023-01-10T15:52:19;33.77;;;14.27;;
23101;SDS011;11720;51.214;22.574;2023-01-10T15:54:46;34.60;;;16.67;;
23101;SDS011;11720;51.214;22.574;2023-01-10T15:59:51;44.80;;;18.33;;
23101;SDS011;11720;51.214;22.574;2023-01-10T16:04:46;58.93;;;25.57;;
23101;SDS011;11720;51.214;22.574;2023-01-10T16:10:22;42.87;;;20.20;;
23101;SDS011;11720;51.214;22.574;2023-01-10T16:13:10;44.97;;;21.03;;
23101;SDS011;11720;51.214;22.574;2023-01-10T16:15:51;54.90;;;22.07;;
23101;SDS011;11720;51.214;22.574;2023-01-10T16:18:20;41.73;;;15.27;;
23101;SDS011;11720;51.214;22.574;2023-01-10T16:20:47;22.30;;;10.17;;
23101;SDS011;11720;51.214;22.574;2023-01-10T16:23:21;60.47;;;24.87;;
23101;SDS011;11720;51.214;22.574;2023-01-10T16:25:53;46.90;;;21.33;;
23101;SDS011;11720;51.214;22.574;2023-01-10T16:28:21;47.97;;;17.50;;
23101;SDS011;11720;51.214;22.574;2023-01-10T16:30:48;36.13;;;15.47;;
23101;SDS011;11720;51.214;22.574;2023-01-10T16:33:16;28.40;;;11.43;;
23101;SDS011;11720;51.214;22.574;2023-01-10T16:35:49;13.33;;;6.70;;
23101;SDS011;11720;51.214;22.574;2023-01-10T16:38:19;20.93;;;7.63;;